sensor_id;sensor_type;location;lat;lon;timestamp;P1;durP1;ratioP1;P2;durP2;ratioP2
3006;SDS011;1513;47.650;10.720;2024-02-21T00:01:08;11.33;;;3.93;;
3006;SDS011;1513;47.650;10.720;2024-02-21T00:03:39;5.33;;;3.20;;
3006;SDS011;1513;47.650;10.720;2024-02-21T00:06:05;5.90;;;3.23;;
3006;SDS011;1513;47.650;10.720;2024-02-21T00:08:31;9.60;;;4.50;;
3006;SDS011;1513;47.650;10.720;2024-02-21T00:10:57;7.73;;;3.70;;
3006;SDS011;1513;47.650;10.720;2024-02-21T00:13:24;11.50;;;4.50;;
3006;SDS011;1513;47.650;10.720;2024-02-21T00:15:50;9.70;;;4.30;;
3006;SDS011;1513;47.650;10.720;2024-02-21T00:18:16;8.50;;;3.80;;
3006;SDS011;1513;47.650;10.720;2024-02-21T00:20:42;6.87;;;3.27;;
3006;SDS011;1513;47.650;10.720;2024-02-21T00:23:08;6.20;;;2.37;;
3006;SDS011;1513;47.650;10.720;2024-02-21T00:25:34;3.97;;;2.03;;
3006;SDS011;1513;47.650;10.720;2024-02-21T00:28:01;1.70;;;1.60;;
3006;SDS011;1513;47.650;10.720;2024-02-21T00:30:27;2.33;;;1.50;;
3006;SDS011;1513;47.650;10.720;2024-02-21T00:32:53;5.07;;;1.80;;
3006;SDS011;1513;47.650;10.720;2024-02-21T00:35:20;3.63;;;2.10;;
3006;SDS011;1513;47.650;10.720;2024-02-21T00:37:46;3.97;;;2.73;;
3006;SDS011;1513;47.650;10.720;2024-02-21T00:40:12;4.60;;;2.60;;
3006;SDS011;1513;47.650;10.720;2024-02-21T00:42:45;5.50;;;2.90;;
3006;SDS011;1513;47.650;10.720;2024-02-21T00:45:12;6.37;;;2.77;;
3006;SDS011;1513;47.650;10.720;2024-02-21T00:47:38;5.97;;;2.87;;
3006;SDS011;1513;47.650;10.720;2024-02-21T00:50:04;4.60;;;2.70;;
3006;SDS011;1513;47.650;10.720;2024-02-21T00:52:32;5.43;;;2.57;;
3006;SDS011;1513;47.650;10.720;2024-02-21T00:54:58;3.73;;;2.60;;
3006;SDS011;1513;47.650;10.720;2024-02-21T00:57:25;2.23;;;1.90;;
3006;SDS011;1513;47.650;10.720;2024-02-21T00:59:51;5.57;;;2.20;;
3006;SDS011;1513;47.650;10.720;2024-02-21T01:02:17;6.60;;;2.63;;
3006;SDS011;1513;47.650;10.720;2024-02-21T01:04:43;3.17;;;1.97;;
3006;SDS011;1513;47.650;10.720;2024-02-21T01:07:10;8.03;;;1.83;;
3006;SDS011;1513;47.650;10.720;2024-02-21T01:09:36;5.10;;;2.10;;
3006;SDS011;1513;47.650;10.720;2024-02-21T01:12:02;0.80;;;0.80;;
3006;SDS011;1513;47.650;10.720;2024-02-21T01:14:29;0.63;;;0.60;;
3006;SDS011;1513;47.650;10.720;2024-02-21T01:16:55;1.30;;;0.67;;
3006;SDS011;1513;47.650;10.720;2024-02-21T01:19:21;1.80;;;0.90;;
3006;SDS011;1513;47.650;10.720;2024-02-21T01:21:47;1.03;;;0.60;;
3006;SDS011;1513;47.650;10.720;2024-02-21T01:24:13;0.60;;;0.60;;
3006;SDS011;1513;47.650;10.720;2024-02-21T01:26:40;0.50;;;0.50;;
3006;SDS011;1513;47.650;10.720;2024-02-21T01:29:06;2.73;;;0.60;;
3006;SDS011;1513;47.650;10.720;2024-02-21T01:31:32;0.53;;;0.53;;
3006;SDS011;1513;47.650;10.720;2024-02-21T01:33:58;1.73;;;0.80;;
3006;SDS011;1513;47.650;10.720;2024-02-21T01:36:25;0.77;;;0.77;;
3006;SDS011;1513;47.650;10.720;2024-02-21T01:38:51;1.40;;;1.00;;
3006;SDS011;1513;47.650;10.720;2024-02-21T01:41:17;0.83;;;0.83;;
3006;SDS011;1513;47.650;10.720;2024-02-21T01:43:43;1.10;;;1.00;;
3006;SDS011;1513;47.650;10.720;2024-02-21T01:46:10;0.93;;;0.70;;
3006;SDS011;1513;47.650;10.720;2024-02-21T01:48:36;1.93;;;1.00;;
3006;SDS011;1513;47.650;10.720;2024-02-21T01:51:02;2.00;;;0.70;;
3006;SDS011;1513;47.650;10.720;2024-02-21T01:53:30;1.90;;;0.90;;
3006;SDS011;1513;47.650;10.720;2024-02-21T01:55:58;0.60;;;0.57;;
3006;SDS011;1513;47.650;10.720;2024-02-21T01:58:24;1.07;;;0.73;;
3006;SDS011;1513;47.650;10.720;2024-02-21T02:00:51;3.00;;;0.80;;
3006;SDS011;1513;47.650;10.720;2024-02-21T02:03:17;0.73;;;0.67;;
3006;SDS011;1513;47.650;10.720;2024-02-21T02:05:46;0.83;;;0.63;;
3006;SDS011;1513;47.650;10.720;2024-02-21T02:08:14;0.80;;;0.80;;
3006;SDS011;1513;47.650;10.720;2024-02-21T02:10:42;1.10;;;1.00;;
3006;SDS011;1513;47.650;10.720;2024-02-21T02:13:09;0.93;;;0.60;;
3006;SDS011;1513;47.650;10.720;2024-02-21T02:15:42;2.00;;;0.80;;
3006;SDS011;1513;47.650;10.720;2024-02-21T02:18:09;1.33;;;1.20;;
3006;SDS011;1513;47.650;10.720;2024-02-21T02:20:36;2.87;;;1.87;;
3006;SDS011;1513;47.650;10.720;2024-02-21T02:23:12;2.00;;;1.33;;
3006;SDS011;1513;47.650;10.720;2024-02-21T02:25:56;1.47;;;1.03;;
3006;SDS011;1513;47.650;10.720;2024-02-21T02:28:22;0.87;;;0.87;;
3006;SDS011;1513;47.650;10.720;2024-02-21T02:30:49;1.83;;;1.00;;
3006;SDS011;1513;47.650;10.720;2024-02-21T02:33:16;0.70;;;0.70;;
3006;SDS011;1513;47.650;10.720;2024-02-21T02:35:43;3.07;;;1.10;;
3006;SDS011;1513;47.650;10.720;2024-02-21T02:38:09;1.10;;;0.70;;
3006;SDS011;1513;47.650;10.720;2024-02-21T02:40:37;2.83;;;0.90;;
3006;SDS011;1513;47.650;10.720;2024-02-21T02:43:04;1.20;;;0.87;;
3006;SDS011;1513;47.650;10.720;2024-02-21T02:45:30;0.97;;;0.87;;
3006;SDS011;1513;47.650;10.720;2024-02-21T02:47:57;1.47;;;1.00;;
3006;SDS011;1513;47.650;10.720;2024-02-21T02:50:23;1.50;;;1.13;;
3006;SDS011;1513;47.650;10.720;2024-02-21T02:52:50;1.23;;;1.07;;
3006;SDS011;1513;47.650;10.720;2024-02-21T02:55:16;1.57;;;1.40;;
3006;SDS011;1513;47.650;10.720;2024-02-21T02:57:42;1.20;;;1.10;;
3006;SDS011;1513;47.650;10.720;2024-02-21T03:00:12;1.50;;;1.10;;
3006;SDS011;1513;47.650;10.720;2024-02-21T03:02:40;2.40;;;1.00;;
3006;SDS011;1513;47.650;10.720;2024-02-21T03:05:17;1.63;;;1.40;;
3006;SDS011;1513;47.650;10.720;2024-02-21T03:07:44;1.83;;;1.40;;
3006;SDS011;1513;47.650;10.720;2024-02-21T03:10:11;1.40;;;1.20;;
3006;SDS011;1513;47.650;10.720;2024-02-21T03:12:37;1.23;;;1.10;;
3006;SDS011;1513;47.650;10.720;2024-02-21T03:15:04;1.93;;;1.37;;
3006;SDS011;1513;47.650;10.720;2024-02-21T03:17:31;5.57;;;1.20;;
3006;SDS011;1513;47.650;10.720;2024-02-21T03:19:59;4.10;;;0.90;;
3006;SDS011;1513;47.650;10.720;2024-02-21T03:22:26;0.50;;;0.40;;
3006;SDS011;1513;47.650;10.720;2024-02-21T03:24:52;0.90;;;0.50;;
3006;SDS011;1513;47.650;10.720;2024-02-21T03:27:18;0.60;;;0.60;;
3006;SDS011;1513;47.650;10.720;2024-02-21T03:29:45;0.50;;;0.50;;
3006;SDS011;1513;47.650;10.720;2024-02-21T03:32:11;0.43;;;0.43;;
3006;SDS011;1513;47.650;10.720;2024-02-21T03:34:37;0.70;;;0.50;;
3006;SDS011;1513;47.650;10.720;2024-02-21T03:37:03;0.50;;;0.50;;
3006;SDS011;1513;47.650;10.720;2024-02-21T03:39:33;0.40;;;0.33;;
3006;SDS011;1513;47.650;10.720;2024-02-21T03:41:59;0.60;;;0.60;;
3006;SDS011;1513;47.650;10.720;2024-02-21T03:44:29;0.57;;;0.57;;
3006;SDS011;1513;47.650;10.720;2024-02-21T03:46:56;0.50;;;0.50;;
3006;SDS011;1513;47.650;10.720;2024-02-21T03:49:23;0.40;;;0.40;;
3006;SDS011;1513;47.650;10.720;2024-02-21T03:51:49;1.47;;;0.67;;
3006;SDS011;1513;47.650;10.720;2024-02-21T03:54:15;2.13;;;0.40;;
3006;SDS011;1513;47.650;10.720;2024-02-21T03:56:42;0.50;;;0.50;;
3006;SDS011;1513;47.650;10.720;2024-02-21T03:59:08;4.13;;;0.60;;
3006;SDS011;1513;47.650;10.720;2024-02-21T04:01:35;0.60;;;0.60;;
3006;SDS011;1513;47.650;10.720;2024-02-21T04:04:01;0.80;;;0.80;;
3006;SDS011;1513;47.650;10.720;2024-02-21T04:06:27;3.70;;;1.57;;
3006;SDS011;1513;47.650;10.720;2024-02-21T04:08:54;2.20;;;1.87;;
3006;SDS011;1513;47.650;10.720;2024-02-21T04:11:20;2.27;;;1.43;;
3006;SDS011;1513;47.650;10.720;2024-02-21T04:13:48;3.03;;;1.57;;
3006;SDS011;1513;47.650;10.720;2024-02-21T04:16:15;1.40;;;1.13;;
3006;SDS011;1513;47.650;10.720;2024-02-21T04:18:42;0.87;;;0.80;;
3006;SDS011;1513;47.650;10.720;2024-02-21T04:21:08;0.30;;;0.30;;
3006;SDS011;1513;47.650;10.720;2024-02-21T04:23:35;0.40;;;0.40;;
3006;SDS011;1513;47.650;10.720;2024-02-21T04:26:01;0.50;;;0.50;;
3006;SDS011;1513;47.650;10.720;2024-02-21T04:28:27;0.40;;;0.30;;
3006;SDS011;1513;47.650;10.720;2024-02-21T04:30:54;1.27;;;0.70;;
3006;SDS011;1513;47.650;10.720;2024-02-21T04:33:20;0.40;;;0.40;;
3006;SDS011;1513;47.650;10.720;2024-02-21T04:35:46;0.40;;;0.40;;
3006;SDS011;1513;47.650;10.720;2024-02-21T04:38:12;1.87;;;1.57;;
3006;SDS011;1513;47.650;10.720;2024-02-21T04:40:40;0.70;;;0.70;;
3006;SDS011;1513;47.650;10.720;2024-02-21T04:43:06;0.50;;;0.50;;
3006;SDS011;1513;47.650;10.720;2024-02-21T04:45:32;0.40;;;0.40;;
3006;SDS011;1513;47.650;10.720;2024-02-21T04:47:58;0.50;;;0.50;;
3006;SDS011;1513;47.650;10.720;2024-02-21T04:50:24;0.40;;;0.40;;
3006;SDS011;1513;47.650;10.720;2024-02-21T04:52:50;0.50;;;0.40;;
3006;SDS011;1513;47.650;10.720;2024-02-21T04:55:17;0.90;;;0.50;;
3006;SDS011;1513;47.650;10.720;2024-02-21T04:57:43;1.80;;;0.40;;
3006;SDS011;1513;47.650;10.720;2024-02-21T05:00:09;0.40;;;0.40;;
3006;SDS011;1513;47.650;10.720;2024-02-21T05:02:36;1.13;;;0.40;;
3006;SDS011;1513;47.650;10.720;2024-02-21T05:05:02;0.60;;;0.60;;
3006;SDS011;1513;47.650;10.720;2024-02-21T05:07:28;2.50;;;1.43;;
3006;SDS011;1513;47.650;10.720;2024-02-21T05:09:54;1.83;;;1.10;;
3006;SDS011;1513;47.650;10.720;2024-02-21T05:12:20;1.20;;;1.10;;
3006;SDS011;1513;47.650;10.720;2024-02-21T05:14:47;1.33;;;1.07;;
3006;SDS011;1513;47.650;10.720;2024-02-21T05:17:15;0.97;;;0.70;;
3006;SDS011;1513;47.650;10.720;2024-02-21T05:19:41;0.73;;;0.73;;
3006;SDS011;1513;47.650;10.720;2024-02-21T05:22:07;1.43;;;0.90;;
3006;SDS011;1513;47.650;10.720;2024-02-21T05:24:34;1.10;;;1.00;;
3006;SDS011;1513;47.650;10.720;2024-02-21T05:27:00;0.83;;;0.73;;
3006;SDS011;1513;47.650;10.720;2024-02-21T05:29:26;1.40;;;1.30;;
3006;SDS011;1513;47.650;10.720;2024-02-21T05:34:19;1.23;;;1.13;;
3006;SDS011;1513;47.650;10.720;2024-02-21T05:36:45;2.10;;;1.27;;
3006;SDS011;1513;47.650;10.720;2024-02-21T05:39:12;1.97;;;1.47;;
3006;SDS011;1513;47.650;10.720;2024-02-21T05:41:38;1.87;;;1.40;;
3006;SDS011;1513;47.650;10.720;2024-02-21T05:44:04;3.43;;;1.20;;
3006;SDS011;1513;47.650;10.720;2024-02-21T05:46:31;3.17;;;1.33;;
3006;SDS011;1513;47.650;10.720;2024-02-21T05:48:57;2.70;;;1.10;;
3006;SDS011;1513;47.650;10.720;2024-02-21T05:51:24;4.57;;;1.57;;
3006;SDS011;1513;47.650;10.720;2024-02-21T05:53:50;2.20;;;1.77;;
3006;SDS011;1513;47.650;10.720;2024-02-21T05:56:16;1.87;;;1.20;;
3006;SDS011;1513;47.650;10.720;2024-02-21T05:58:43;1.77;;;1.20;;
3006;SDS011;1513;47.650;10.720;2024-02-21T06:01:09;1.23;;;1.00;;
3006;SDS011;1513;47.650;10.720;2024-02-21T06:03:35;6.30;;;2.03;;
3006;SDS011;1513;47.650;10.720;2024-02-21T06:06:02;2.60;;;1.00;;
3006;SDS011;1513;47.650;10.720;2024-02-21T06:08:30;4.33;;;1.30;;
3006;SDS011;1513;47.650;10.720;2024-02-21T06:10:56;0.60;;;0.60;;
3006;SDS011;1513;47.650;10.720;2024-02-21T06:13:25;0.50;;;0.40;;
3006;SDS011;1513;47.650;10.720;2024-02-21T06:15:51;0.40;;;0.40;;
3006;SDS011;1513;47.650;10.720;2024-02-21T06:18:18;0.40;;;0.40;;
3006;SDS011;1513;47.650;10.720;2024-02-21T06:20:45;0.50;;;0.50;;
3006;SDS011;1513;47.650;10.720;2024-02-21T06:23:12;52.23;;;23.30;;
3006;SDS011;1513;47.650;10.720;2024-02-21T06:25:40;49.53;;;21.47;;
3006;SDS011;1513;47.650;10.720;2024-02-21T06:28:06;28.60;;;12.70;;
3006;SDS011;1513;47.650;10.720;2024-02-21T06:30:32;36.37;;;16.50;;
3006;SDS011;1513;47.650;10.720;2024-02-21T06:32:59;34.40;;;16.73;;
3006;SDS011;1513;47.650;10.720;2024-02-21T06:35:25;35.70;;;16.13;;
3006;SDS011;1513;47.650;10.720;2024-02-21T06:37:52;36.87;;;16.33;;
3006;SDS011;1513;47.650;10.720;2024-02-21T06:40:20;33.30;;;15.90;;
3006;SDS011;1513;47.650;10.720;2024-02-21T06:42:47;33.47;;;13.40;;
3006;SDS011;1513;47.650;10.720;2024-02-21T06:45:14;9.53;;;4.93;;
3006;SDS011;1513;47.650;10.720;2024-02-21T06:47:41;8.03;;;4.20;;
3006;SDS011;1513;47.650;10.720;2024-02-21T06:50:07;12.43;;;5.60;;
3006;SDS011;1513;47.650;10.720;2024-02-21T06:52:34;11.27;;;5.40;;
3006;SDS011;1513;47.650;10.720;2024-02-21T06:55:00;7.90;;;5.20;;
3006;SDS011;1513;47.650;10.720;2024-02-21T06:57:28;18.57;;;9.37;;
3006;SDS011;1513;47.650;10.720;2024-02-21T06:59:54;31.33;;;13.90;;
3006;SDS011;1513;47.650;10.720;2024-02-21T07:02:21;63.10;;;27.10;;
3006;SDS011;1513;47.650;10.720;2024-02-21T07:04:47;59.07;;;23.13;;
3006;SDS011;1513;47.650;10.720;2024-02-21T07:07:13;32.50;;;15.70;;
3006;SDS011;1513;47.650;10.720;2024-02-21T07:09:40;29.40;;;13.20;;
3006;SDS011;1513;47.650;10.720;2024-02-21T07:12:06;33.00;;;14.40;;
3006;SDS011;1513;47.650;10.720;2024-02-21T07:14:33;65.03;;;24.40;;
3006;SDS011;1513;47.650;10.720;2024-02-21T07:17:00;57.47;;;22.60;;
3006;SDS011;1513;47.650;10.720;2024-02-21T07:19:26;41.97;;;18.10;;
3006;SDS011;1513;47.650;10.720;2024-02-21T07:21:53;18.90;;;11.10;;
3006;SDS011;1513;47.650;10.720;2024-02-21T07:24:19;24.43;;;10.90;;
3006;SDS011;1513;47.650;10.720;2024-02-21T07:26:45;11.27;;;7.00;;
3006;SDS011;1513;47.650;10.720;2024-02-21T07:29:12;8.70;;;4.47;;
3006;SDS011;1513;47.650;10.720;2024-02-21T07:31:42;8.53;;;4.00;;
3006;SDS011;1513;47.650;10.720;2024-02-21T07:34:08;5.07;;;3.60;;
3006;SDS011;1513;47.650;10.720;2024-02-21T07:36:35;1.30;;;1.20;;
3006;SDS011;1513;47.650;10.720;2024-02-21T07:39:04;0.50;;;0.50;;
3006;SDS011;1513;47.650;10.720;2024-02-21T07:41:31;0.67;;;0.40;;
3006;SDS011;1513;47.650;10.720;2024-02-21T07:43:58;0.40;;;0.40;;
3006;SDS011;1513;47.650;10.720;2024-02-21T07:46:24;0.80;;;0.70;;
3006;SDS011;1513;47.650;10.720;2024-02-21T07:48:51;0.60;;;0.60;;
3006;SDS011;1513;47.650;10.720;2024-02-21T07:51:17;0.40;;;0.40;;
3006;SDS011;1513;47.650;10.720;2024-02-21T07:53:44;0.50;;;0.50;;
3006;SDS011;1513;47.650;10.720;2024-02-21T07:56:11;0.67;;;0.60;;
3006;SDS011;1513;47.650;10.720;2024-02-21T07:58:39;2.60;;;0.50;;
3006;SDS011;1513;47.650;10.720;2024-02-21T08:01:08;0.40;;;0.40;;
3006;SDS011;1513;47.650;10.720;2024-02-21T08:03:35;0.60;;;0.40;;
3006;SDS011;1513;47.650;10.720;2024-02-21T08:06:02;0.50;;;0.50;;
3006;SDS011;1513;47.650;10.720;2024-02-21T08:08:30;0.60;;;0.50;;
3006;SDS011;1513;47.650;10.720;2024-02-21T08:10:57;0.40;;;0.40;;
3006;SDS011;1513;47.650;10.720;2024-02-21T08:13:23;0.90;;;0.47;;
3006;SDS011;1513;47.650;10.720;2024-02-21T08:15:49;2.30;;;1.10;;
3006;SDS011;1513;47.650;10.720;2024-02-21T08:18:15;0.40;;;0.40;;
3006;SDS011;1513;47.650;10.720;2024-02-21T08:20:41;0.70;;;0.70;;
3006;SDS011;1513;47.650;10.720;2024-02-21T08:23:08;1.17;;;0.60;;
3006;SDS011;1513;47.650;10.720;2024-02-21T08:25:34;0.60;;;0.60;;
3006;SDS011;1513;47.650;10.720;2024-02-21T08:28:00;1.33;;;1.00;;
3006;SDS011;1513;47.650;10.720;2024-02-21T08:30:27;1.10;;;1.10;;
3006;SDS011;1513;47.650;10.720;2024-02-21T08:32:53;0.40;;;0.40;;
3006;SDS011;1513;47.650;10.720;2024-02-21T08:35:19;4.10;;;0.90;;
3006;SDS011;1513;47.650;10.720;2024-02-21T08:37:49;0.60;;;0.60;;
3006;SDS011;1513;47.650;10.720;2024-02-21T08:40:15;0.50;;;0.50;;
3006;SDS011;1513;47.650;10.720;2024-02-21T08:42:46;0.63;;;0.63;;
3006;SDS011;1513;47.650;10.720;2024-02-21T08:45:12;1.27;;;0.50;;
3006;SDS011;1513;47.650;10.720;2024-02-21T08:47:39;0.83;;;0.50;;
3006;SDS011;1513;47.650;10.720;2024-02-21T08:50:06;1.57;;;0.30;;
3006;SDS011;1513;47.650;10.720;2024-02-21T08:52:34;0.50;;;0.50;;
3006;SDS011;1513;47.650;10.720;2024-02-21T08:55:01;0.43;;;0.40;;
3006;SDS011;1513;47.650;10.720;2024-02-21T08:57:27;0.70;;;0.50;;
3006;SDS011;1513;47.650;10.720;2024-02-21T08:59:54;0.40;;;0.30;;
3006;SDS011;1513;47.650;10.720;2024-02-21T09:02:20;1.00;;;0.70;;
3006;SDS011;1513;47.650;10.720;2024-02-21T09:04:46;1.17;;;0.40;;
3006;SDS011;1513;47.650;10.720;2024-02-21T09:07:12;0.60;;;0.60;;
3006;SDS011;1513;47.650;10.720;2024-02-21T09:09:38;1.87;;;0.87;;
3006;SDS011;1513;47.650;10.720;2024-02-21T09:12:08;0.80;;;0.80;;
3006;SDS011;1513;47.650;10.720;2024-02-21T09:14:35;0.60;;;0.60;;
3006;SDS011;1513;47.650;10.720;2024-02-21T09:17:02;0.53;;;0.50;;
3006;SDS011;1513;47.650;10.720;2024-02-21T09:19:29;0.63;;;0.63;;
3006;SDS011;1513;47.650;10.720;2024-02-21T09:21:55;0.80;;;0.43;;
3006;SDS011;1513;47.650;10.720;2024-02-21T09:24:21;0.40;;;0.40;;
3006;SDS011;1513;47.650;10.720;2024-02-21T09:26:47;0.87;;;0.50;;
3006;SDS011;1513;47.650;10.720;2024-02-21T09:29:14;0.60;;;0.50;;
3006;SDS011;1513;47.650;10.720;2024-02-21T09:31:41;4.20;;;0.60;;
3006;SDS011;1513;47.650;10.720;2024-02-21T09:34:07;0.90;;;0.80;;
3006;SDS011;1513;47.650;10.720;2024-02-21T09:36:36;0.40;;;0.40;;
3006;SDS011;1513;47.650;10.720;2024-02-21T09:39:02;0.60;;;0.60;;
3006;SDS011;1513;47.650;10.720;2024-02-21T09:41:29;1.23;;;0.60;;
3006;SDS011;1513;47.650;10.720;2024-02-21T09:43:55;6.00;;;0.70;;
3006;SDS011;1513;47.650;10.720;2024-02-21T09:46:40;0.60;;;0.60;;
3006;SDS011;1513;47.650;10.720;2024-02-21T09:51:55;0.93;;;0.90;;
3006;SDS011;1513;47.650;10.720;2024-02-21T09:54:24;0.60;;;0.60;;
3006;SDS011;1513;47.650;10.720;2024-02-21T09:56:51;1.37;;;1.27;;
3006;SDS011;1513;47.650;10.720;2024-02-21T09:59:17;0.87;;;0.87;;
3006;SDS011;1513;47.650;10.720;2024-02-21T10:01:43;0.60;;;0.60;;
3006;SDS011;1513;47.650;10.720;2024-02-21T10:04:12;1.00;;;0.80;;
3006;SDS011;1513;47.650;10.720;2024-02-21T10:06:38;1.20;;;0.70;;
3006;SDS011;1513;47.650;10.720;2024-02-21T10:09:07;1.43;;;0.50;;
3006;SDS011;1513;47.650;10.720;2024-02-21T10:11:33;1.10;;;1.00;;
3006;SDS011;1513;47.650;10.720;2024-02-21T10:14:04;1.30;;;1.20;;
3006;SDS011;1513;47.650;10.720;2024-02-21T10:16:31;0.70;;;0.63;;
3006;SDS011;1513;47.650;10.720;2024-02-21T10:18:58;0.40;;;0.40;;
3006;SDS011;1513;47.650;10.720;2024-02-21T10:21:25;0.70;;;0.50;;
3006;SDS011;1513;47.650;10.720;2024-02-21T10:23:51;0.80;;;0.57;;
3006;SDS011;1513;47.650;10.720;2024-02-21T10:26:18;1.70;;;0.70;;
3006;SDS011;1513;47.650;10.720;2024-02-21T10:28:45;0.63;;;0.63;;
3006;SDS011;1513;47.650;10.720;2024-02-21T10:31:26;1.17;;;0.50;;
3006;SDS011;1513;47.650;10.720;2024-02-21T10:34:02;9.60;;;0.93;;
3006;SDS011;1513;47.650;10.720;2024-02-21T10:36:28;0.60;;;0.60;;
3006;SDS011;1513;47.650;10.720;2024-02-21T10:38:55;0.70;;;0.60;;
3006;SDS011;1513;47.650;10.720;2024-02-21T10:41:22;0.63;;;0.63;;
3006;SDS011;1513;47.650;10.720;2024-02-21T10:43:52;2.00;;;0.90;;
3006;SDS011;1513;47.650;10.720;2024-02-21T10:46:20;1.13;;;0.40;;
3006;SDS011;1513;47.650;10.720;2024-02-21T10:48:47;1.27;;;0.57;;
3006;SDS011;1513;47.650;10.720;2024-02-21T10:51:20;0.50;;;0.50;;
3006;SDS011;1513;47.650;10.720;2024-02-21T10:56:43;0.60;;;0.50;;
3006;SDS011;1513;47.650;10.720;2024-02-21T10:59:11;0.63;;;0.63;;
3006;SDS011;1513;47.650;10.720;2024-02-21T11:01:39;0.83;;;0.60;;
3006;SDS011;1513;47.650;10.720;2024-02-21T11:04:06;3.13;;;0.63;;
3006;SDS011;1513;47.650;10.720;2024-02-21T11:06:33;0.50;;;0.50;;
3006;SDS011;1513;47.650;10.720;2024-02-21T11:11:34;0.50;;;0.43;;
3006;SDS011;1513;47.650;10.720;2024-02-21T11:14:17;0.63;;;0.63;;
3006;SDS011;1513;47.650;10.720;2024-02-21T11:16:44;0.70;;;0.60;;
3006;SDS011;1513;47.650;10.720;2024-02-21T11:19:21;0.70;;;0.70;;
3006;SDS011;1513;47.650;10.720;2024-02-21T11:21:49;0.60;;;0.60;;
3006;SDS011;1513;47.650;10.720;2024-02-21T11:27:12;0.60;;;0.60;;
3006;SDS011;1513;47.650;10.720;2024-02-21T11:29:44;0.70;;;0.70;;
3006;SDS011;1513;47.650;10.720;2024-02-21T11:32:31;0.50;;;0.50;;
3006;SDS011;1513;47.650;10.720;2024-02-21T11:34:57;0.87;;;0.43;;
3006;SDS011;1513;47.650;10.720;2024-02-21T11:37:29;0.50;;;0.50;;
3006;SDS011;1513;47.650;10.720;2024-02-21T11:40:00;1.33;;;0.90;;
3006;SDS011;1513;47.650;10.720;2024-02-21T11:42:28;0.80;;;0.80;;
3006;SDS011;1513;47.650;10.720;2024-02-21T11:44:56;1.63;;;0.53;;
3006;SDS011;1513;47.650;10.720;2024-02-21T11:47:22;1.47;;;1.07;;
3006;SDS011;1513;47.650;10.720;2024-02-21T11:49:49;1.10;;;0.63;;
3006;SDS011;1513;47.650;10.720;2024-02-21T11:52:19;1.23;;;1.13;;
3006;SDS011;1513;47.650;10.720;2024-02-21T11:54:50;5.40;;;2.60;;
3006;SDS011;1513;47.650;10.720;2024-02-21T11:57:17;1.73;;;1.57;;
3006;SDS011;1513;47.650;10.720;2024-02-21T11:59:44;2.07;;;1.23;;
3006;SDS011;1513;47.650;10.720;2024-02-21T12:02:11;7.30;;;3.00;;
3006;SDS011;1513;47.650;10.720;2024-02-21T12:04:38;4.07;;;2.50;;
3006;SDS011;1513;47.650;10.720;2024-02-21T12:07:05;4.43;;;2.00;;
3006;SDS011;1513;47.650;10.720;2024-02-21T12:09:31;1.93;;;1.30;;
3006;SDS011;1513;47.650;10.720;2024-02-21T12:12:00;0.60;;;0.60;;
3006;SDS011;1513;47.650;10.720;2024-02-21T12:14:28;1.73;;;1.27;;
3006;SDS011;1513;47.650;10.720;2024-02-21T12:16:56;1.63;;;0.90;;
3006;SDS011;1513;47.650;10.720;2024-02-21T12:19:22;1.80;;;0.70;;
3006;SDS011;1513;47.650;10.720;2024-02-21T12:21:49;1.33;;;0.83;;
3006;SDS011;1513;47.650;10.720;2024-02-21T12:24:16;1.33;;;0.80;;
3006;SDS011;1513;47.650;10.720;2024-02-21T12:26:53;0.93;;;0.70;;
3006;SDS011;1513;47.650;10.720;2024-02-21T12:29:23;1.60;;;0.90;;
3006;SDS011;1513;47.650;10.720;2024-02-21T12:31:53;0.83;;;0.70;;
3006;SDS011;1513;47.650;10.720;2024-02-21T12:34:20;0.97;;;0.67;;
3006;SDS011;1513;47.650;10.720;2024-02-21T12:36:47;0.70;;;0.57;;
3006;SDS011;1513;47.650;10.720;2024-02-21T12:39:13;4.50;;;0.70;;
3006;SDS011;1513;47.650;10.720;2024-02-21T12:41:40;1.33;;;0.90;;
3006;SDS011;1513;47.650;10.720;2024-02-21T12:44:08;1.50;;;1.40;;
3006;SDS011;1513;47.650;10.720;2024-02-21T12:46:36;0.70;;;0.70;;
3006;SDS011;1513;47.650;10.720;2024-02-21T12:49:03;1.53;;;0.80;;
3006;SDS011;1513;47.650;10.720;2024-02-21T12:51:30;0.50;;;0.47;;
3006;SDS011;1513;47.650;10.720;2024-02-21T12:53:56;0.93;;;0.70;;
3006;SDS011;1513;47.650;10.720;2024-02-21T12:56:24;0.80;;;0.80;;
3006;SDS011;1513;47.650;10.720;2024-02-21T12:58:52;0.50;;;0.50;;
3006;SDS011;1513;47.650;10.720;2024-02-21T13:01:18;0.70;;;0.70;;
3006;SDS011;1513;47.650;10.720;2024-02-21T13:03:46;0.50;;;0.47;;
3006;SDS011;1513;47.650;10.720;2024-02-21T13:06:12;0.53;;;0.47;;
3006;SDS011;1513;47.650;10.720;2024-02-21T13:08:38;0.80;;;0.80;;
3006;SDS011;1513;47.650;10.720;2024-02-21T13:11:06;0.67;;;0.67;;
3006;SDS011;1513;47.650;10.720;2024-02-21T13:13:32;4.73;;;1.20;;
3006;SDS011;1513;47.650;10.720;2024-02-21T13:15:58;4.00;;;1.40;;
3006;SDS011;1513;47.650;10.720;2024-02-21T13:18:25;0.87;;;0.73;;
3006;SDS011;1513;47.650;10.720;2024-02-21T13:20:51;6.53;;;3.10;;
3006;SDS011;1513;47.650;10.720;2024-02-21T13:23:17;3.20;;;1.70;;
3006;SDS011;1513;47.650;10.720;2024-02-21T13:25:46;1.03;;;0.80;;
3006;SDS011;1513;47.650;10.720;2024-02-21T13:28:17;0.70;;;0.67;;
3006;SDS011;1513;47.650;10.720;2024-02-21T13:30:44;2.37;;;1.83;;
3006;SDS011;1513;47.650;10.720;2024-02-21T13:33:10;0.70;;;0.70;;
3006;SDS011;1513;47.650;10.720;2024-02-21T13:35:37;1.90;;;0.50;;
3006;SDS011;1513;47.650;10.720;2024-02-21T13:38:03;2.23;;;0.97;;
3006;SDS011;1513;47.650;10.720;2024-02-21T13:40:30;0.70;;;0.60;;
3006;SDS011;1513;47.650;10.720;2024-02-21T13:42:56;1.03;;;0.70;;
3006;SDS011;1513;47.650;10.720;2024-02-21T13:45:23;0.87;;;0.43;;
3006;SDS011;1513;47.650;10.720;2024-02-21T13:47:49;0.70;;;0.70;;
3006;SDS011;1513;47.650;10.720;2024-02-21T13:50:16;0.60;;;0.60;;
3006;SDS011;1513;47.650;10.720;2024-02-21T13:52:42;1.00;;;0.57;;
3006;SDS011;1513;47.650;10.720;2024-02-21T13:55:09;1.00;;;0.50;;
3006;SDS011;1513;47.650;10.720;2024-02-21T13:57:35;0.50;;;0.50;;
3006;SDS011;1513;47.650;10.720;2024-02-21T14:00:02;0.87;;;0.87;;
3006;SDS011;1513;47.650;10.720;2024-02-21T14:02:37;0.50;;;0.50;;
3006;SDS011;1513;47.650;10.720;2024-02-21T14:05:04;1.60;;;0.67;;
3006;SDS011;1513;47.650;10.720;2024-02-21T14:07:31;0.60;;;0.60;;
3006;SDS011;1513;47.650;10.720;2024-02-21T14:10:03;0.53;;;0.50;;
3006;SDS011;1513;47.650;10.720;2024-02-21T14:12:29;0.50;;;0.40;;
3006;SDS011;1513;47.650;10.720;2024-02-21T14:14:57;1.77;;;1.50;;
3006;SDS011;1513;47.650;10.720;2024-02-21T14:17:23;4.70;;;1.73;;
3006;SDS011;1513;47.650;10.720;2024-02-21T14:19:50;4.10;;;2.80;;
3006;SDS011;1513;47.650;10.720;2024-02-21T14:22:16;2.90;;;1.30;;
3006;SDS011;1513;47.650;10.720;2024-02-21T14:24:43;1.13;;;0.90;;
3006;SDS011;1513;47.650;10.720;2024-02-21T14:27:10;0.80;;;0.80;;
3006;SDS011;1513;47.650;10.720;2024-02-21T14:29:37;0.70;;;0.70;;
3006;SDS011;1513;47.650;10.720;2024-02-21T14:32:05;0.47;;;0.47;;
3006;SDS011;1513;47.650;10.720;2024-02-21T14:34:32;1.10;;;0.40;;
3006;SDS011;1513;47.650;10.720;2024-02-21T14:36:58;0.80;;;0.50;;
3006;SDS011;1513;47.650;10.720;2024-02-21T14:39:24;0.40;;;0.37;;
3006;SDS011;1513;47.650;10.720;2024-02-21T14:41:51;0.70;;;0.47;;
3006;SDS011;1513;47.650;10.720;2024-02-21T14:44:17;0.60;;;0.60;;
3006;SDS011;1513;47.650;10.720;2024-02-21T14:46:43;0.70;;;0.40;;
3006;SDS011;1513;47.650;10.720;2024-02-21T14:49:10;0.60;;;0.60;;
3006;SDS011;1513;47.650;10.720;2024-02-21T14:51:36;0.60;;;0.43;;
3006;SDS011;1513;47.650;10.720;2024-02-21T14:54:02;0.87;;;0.40;;
3006;SDS011;1513;47.650;10.720;2024-02-21T14:56:29;0.80;;;0.80;;
3006;SDS011;1513;47.650;10.720;2024-02-21T14:58:56;0.73;;;0.73;;
3006;SDS011;1513;47.650;10.720;2024-02-21T15:01:23;1.33;;;0.70;;
3006;SDS011;1513;47.650;10.720;2024-02-21T15:03:49;2.10;;;0.97;;
3006;SDS011;1513;47.650;10.720;2024-02-21T15:06:16;0.77;;;0.77;;
3006;SDS011;1513;47.650;10.720;2024-02-21T15:08:43;0.70;;;0.70;;
3006;SDS011;1513;47.650;10.720;2024-02-21T15:11:09;0.60;;;0.60;;
3006;SDS011;1513;47.650;10.720;2024-02-21T15:13:35;0.70;;;0.70;;